Time;durP1;ratioP1;P1;durP2;ratioP2;P2;SDS_P1;SDS_P2;PMS_P1;PMS_P2;Temp;Humidity;BMP_temperature;BMP_pressure;BME280_temperature;BME280_humidity;BME280_pressure;Samples;Min_cycle;Max_cycle;Signal;HPM_P1;HPM_P2
2023/09/03 00:02:19;;;;;;;4.50;2.90;;;13.50;99.90;;;;;;4901233;29;20183;-82
2023/09/03 00:04:45;;;;;;;2.50;2.30;;;13.50;99.90;;;;;;4904235;29;20033;-82
2023/09/03 00:07:11;;;;;;;2.90;2.60;;;13.50;99.90;;;;;;4904217;29;20037;-81
2023/09/03 00:09:36;;;;;;;2.63;2.38;;;13.50;99.90;;;;;;4901780;29;20089;-82
2023/09/03 00:12:04;;;;;;;2.08;1.88;;;13.50;99.90;;;;;;4901799;29;20068;-80
2023/09/03 00:14:29;;;;;;;3.67;2.17;;;13.50;99.90;;;;;;4903451;29;20599;-82
2023/09/03 00:16:55;;;;;;;2.53;2.33;;;13.50;99.90;;;;;;4902608;29;20048;-81
2023/09/03 00:19:21;;;;;;;2.70;2.50;;;13.50;99.90;;;;;;4899670;29;20028;-81
2023/09/03 00:21:47;;;;;;;4.63;2.88;;;13.50;99.90;;;;;;4896536;29;20063;-81
2023/09/03 00:24:17;;;;;;;2.35;2.15;;;13.50;99.90;;;;;;4893504;29;20033;-81
2023/09/03 00:26:43;;;;;;;3.47;2.55;;;13.50;99.90;;;;;;4904763;29;20064;-81
2023/09/03 00:29:09;;;;;;;2.40;2.20;;;13.50;99.90;;;;;;4910989;29;20048;-81
2023/09/03 00:31:35;;;;;;;2.58;2.38;;;13.40;99.90;;;;;;4895828;29;20048;-81
2023/09/03 00:34:00;;;;;;;2.88;2.25;;;13.40;99.90;;;;;;4883279;29;20037;-81
2023/09/03 00:36:26;;;;;;;6.63;2.25;;;13.40;99.90;;;;;;4922857;29;20036;-81
2023/09/03 00:38:53;;;;;;;3.53;2.00;;;13.40;99.90;;;;;;4901418;29;20045;-82
2023/09/03 00:41:19;;;;;;;5.05;2.05;;;13.40;99.90;;;;;;4896821;29;20096;-82
2023/09/03 00:43:44;;;;;;;2.95;1.70;;;13.40;99.90;;;;;;4896794;29;20033;-81
2023/09/03 00:46:10;;;;;;;3.03;2.08;;;13.30;99.90;;;;;;4911436;29;20040;-80
2023/09/03 00:48:38;;;;;;;2.20;1.75;;;13.30;99.90;;;;;;4903757;29;20044;-80
2023/09/03 00:51:07;;;;;;;2.90;2.03;;;13.30;99.90;;;;;;4905994;29;20104;-81
2023/09/03 00:53:35;;;;;;;2.40;2.20;;;13.30;99.90;;;;;;4913959;29;20513;-81
2023/09/03 00:56:01;;;;;;;2.13;1.92;;;13.30;99.90;;;;;;4902687;29;20029;-82
2023/09/03 00:58:27;;;;;;;2.55;2.33;;;13.30;99.90;;;;;;4903740;29;20036;-78
2023/09/03 01:00:53;;;;;;;4.55;2.10;;;13.30;99.90;;;;;;4889343;29;20780;-82
2023/09/03 01:03:20;;;;;;;2.78;2.22;;;13.20;99.90;;;;;;4907178;29;20039;-82
2023/09/03 01:05:45;;;;;;;2.25;2.05;;;13.20;99.90;;;;;;4899600;29;20040;-79
2023/09/03 01:08:12;;;;;;;3.63;2.08;;;13.20;99.90;;;;;;4901244;29;20036;-81
2023/09/03 01:11:20;;;;;;;2.17;1.90;;;13.10;99.90;;;;;;4915148;29;20068;-82
2023/09/03 01:13:57;;;;;;;3.67;2.03;;;13.20;99.90;;;;;;4896772;29;20036;-81
2023/09/03 01:16:31;;;;;;;4.60;2.05;;;13.10;99.90;;;;;;4896195;29;20414;-82
2023/09/03 01:19:01;;;;;;;4.38;2.47;;;13.10;99.90;;;;;;4899494;29;20036;-80
2023/09/03 01:21:38;;;;;;;3.05;2.50;;;13.10;99.90;;;;;;4902858;29;20025;-80
2023/09/03 01:24:07;;;;;;;3.03;1.90;;;13.10;99.90;;;;;;4897223;29;20085;-81
2023/09/03 01:26:58;;;;;;;4.05;2.10;;;13.00;99.90;;;;;;4900833;29;20071;-81
2023/09/03 01:29:26;;;;;;;2.00;1.90;;;13.00;99.90;;;;;;4922288;29;20032;-80
2023/09/03 01:31:53;;;;;;;1.98;1.75;;;13.00;99.90;;;;;;4908177;29;20037;-78
2023/09/03 01:34:20;;;;;;;1.95;1.85;;;12.90;99.90;;;;;;4904868;29;20040;-80
2023/09/03 01:36:48;;;;;;;3.05;1.98;;;12.90;99.90;;;;;;4900038;29;20176;-79
2023/09/03 01:39:16;;;;;;;2.50;2.30;;;12.90;99.90;;;;;;4905082;29;20386;-83
2023/09/03 01:41:42;;;;;;;2.10;1.90;;;12.90;99.90;;;;;;4905673;29;20072;-80
2023/09/03 01:44:09;;;;;;;3.35;2.10;;;12.90;99.90;;;;;;4911855;29;20079;-80
2023/09/03 01:46:55;;;;;;;5.47;2.60;;;12.90;99.90;;;;;;4910718;29;20032;-79
2023/09/03 01:49:26;;;;;;;2.78;2.28;;;12.80;99.90;;;;;;4895022;29;20040;-78
2023/09/03 01:52:17;;;;;;;8.35;2.42;;;12.80;99.90;;;;;;4896086;29;20036;-80
2023/09/03 01:54:48;;;;;;;3.38;2.22;;;12.80;99.90;;;;;;4902725;29;20040;-81
2023/09/03 01:57:34;;;;;;;2.90;2.53;;;12.80;99.90;;;;;;4927204;29;20038;-82
2023/09/03 02:00:13;;;;;;;4.22;2.60;;;12.80;99.90;;;;;;4908708;29;20077;-80
2023/09/03 02:02:42;;;;;;;3.40;2.40;;;12.80;99.90;;;;;;4896161;29;20059;-82
2023/09/03 02:05:08;;;;;;;2.50;1.98;;;12.80;99.90;;;;;;4902463;29;20117;-80
2023/09/03 02:07:34;;;;;;;2.90;2.60;;;12.80;99.90;;;;;;4908858;29;20036;-81
2023/09/03 02:09:59;;;;;;;4.03;2.70;;;12.80;99.90;;;;;;4889991;29;20088;-82
2023/09/03 02:12:25;;;;;;;4.38;2.10;;;12.80;99.90;;;;;;4913579;29;20051;-81
2023/09/03 02:14:52;;;;;;;3.85;2.92;;;12.80;99.90;;;;;;4897762;29;20033;-82
2023/09/03 02:17:21;;;;;;;3.90;2.42;;;12.80;99.90;;;;;;4904303;29;20117;-81
2023/09/03 02:19:52;;;;;;;2.88;2.67;;;12.80;99.90;;;;;;4897267;29;20048;-81
2023/09/03 02:22:19;;;;;;;2.95;2.70;;;12.80;99.90;;;;;;4895520;29;20033;-83
2023/09/03 02:24:45;;;;;;;5.72;2.35;;;12.80;99.90;;;;;;4898569;29;20025;-80
2023/09/03 02:27:11;;;;;;;3.30;2.83;;;12.80;99.90;;;;;;4910260;29;20043;-79
2023/09/03 02:29:41;;;;;;;3.22;2.38;;;12.80;99.90;;;;;;4912562;29;20044;-82
2023/09/03 02:32:07;;;;;;;5.97;2.72;;;12.80;99.90;;;;;;4894619;29;20041;-79
2023/09/03 02:34:34;;;;;;;2.83;2.53;;;12.80;99.90;;;;;;4911642;29;20051;-79
2023/09/03 02:37:03;;;;;;;2.85;2.55;;;12.80;99.90;;;;;;4922266;29;20032;-79
2023/09/03 02:39:29;;;;;;;4.85;2.20;;;12.80;99.90;;;;;;4911205;29;20044;-80
2023/09/03 02:41:55;;;;;;;2.38;2.17;;;12.80;99.90;;;;;;4894913;29;20029;-82
2023/09/03 02:44:21;;;;;;;3.83;2.30;;;12.80;99.90;;;;;;4895031;29;20032;-82
2023/09/03 02:46:48;;;;;;;3.80;2.60;;;12.90;99.90;;;;;;4906323;29;20044;-79
2023/09/03 02:49:14;;;;;;;2.40;2.20;;;12.90;99.90;;;;;;4911761;29;20032;-77
2023/09/03 02:51:42;;;;;;;2.55;2.35;;;12.90;99.90;;;;;;4901547;29;20677;-81
2023/09/03 02:54:08;;;;;;;2.67;2.40;;;12.80;99.90;;;;;;4893466;29;20119;-82
2023/09/03 02:56:34;;;;;;;2.60;2.40;;;12.80;99.90;;;;;;4901662;29;20494;-80
2023/09/03 02:59:00;;;;;;;2.45;2.13;;;12.80;99.90;;;;;;4908414;29;20069;-81
2023/09/03 03:01:26;;;;;;;3.22;2.38;;;12.80;99.90;;;;;;4917142;29;20039;-81
2023/09/03 03:03:51;;;;;;;2.92;1.77;;;12.80;99.90;;;;;;4899913;29;20077;-79
2023/09/03 03:06:18;;;;;;;4.13;2.10;;;12.80;99.90;;;;;;4914052;29;20032;-80
2023/09/03 03:08:43;;;;;;;2.50;2.22;;;12.80;99.90;;;;;;4897236;29;20040;-79
2023/09/03 03:11:17;;;;;;;4.53;2.67;;;12.80;99.90;;;;;;4906638;29;20044;-83
2023/09/03 03:13:53;;;;;;;5.18;1.90;;;12.80;99.90;;;;;;4896256;29;20041;-82
2023/09/03 03:16:23;;;;;;;6.50;2.50;;;12.80;99.90;;;;;;4908823;29;20258;-83
2023/09/03 03:18:52;;;;;;;4.80;2.60;;;12.70;99.90;;;;;;4912957;29;20185;-83
2023/09/03 03:21:22;;;;;;;5.22;2.50;;;12.70;99.90;;;;;;4907647;29;20036;-80
2023/09/03 03:23:58;;;;;;;2.80;2.40;;;12.70;99.90;;;;;;4918424;29;20044;-83
2023/09/03 03:26:34;;;;;;;4.32;2.47;;;12.60;99.90;;;;;;4906324;29;20048;-82
2023/09/03 03:29:01;;;;;;;4.03;2.50;;;12.70;99.90;;;;;;4914358;29;20048;-83
2023/09/03 03:31:31;;;;;;;4.72;2.70;;;12.60;99.90;;;;;;4896846;29;20075;-80
2023/09/03 03:33:58;;;;;;;3.17;2.38;;;12.60;99.90;;;;;;4914122;29;20080;-79
2023/09/03 03:36:27;;;;;;;5.25;2.40;;;12.60;99.90;;;;;;4907334;29;20063;-81
2023/09/03 03:38:52;;;;;;;2.53;2.33;;;12.60;99.90;;;;;;4919534;29;20036;-81
2023/09/03 03:41:19;;;;;;;2.83;2.63;;;12.60;99.90;;;;;;4900451;29;20033;-81
2023/09/03 03:43:49;;;;;;;4.30;2.75;;;12.60;99.90;;;;;;4917424;29;20083;-83
2023/09/03 03:46:19;;;;;;;2.65;2.42;;;12.60;99.90;;;;;;4914883;29;20058;-82
2023/09/03 03:48:48;;;;;;;4.03;2.67;;;12.60;99.90;;;;;;4922638;29;20143;-81
2023/09/03 03:51:14;;;;;;;2.90;2.47;;;12.60;99.90;;;;;;4895597;29;20028;-80
2023/09/03 03:53:41;;;;;;;2.30;2.10;;;12.60;99.90;;;;;;4911993;29;20037;-82
2023/09/03 03:56:10;;;;;;;4.80;2.70;;;12.60;99.90;;;;;;4904874;29;20049;-81
2023/09/03 03:58:37;;;;;;;2.45;2.25;;;12.60;99.90;;;;;;4902587;29;20561;-81
2023/09/03 04:01:17;;;;;;;3.58;2.10;;;12.60;99.90;;;;;;4898873;29;20544;-80
2023/09/03 04:03:45;;;;;;;2.58;2.38;;;12.60;99.90;;;;;;4896032;29;20048;-82
2023/09/03 04:06:11;;;;;;;3.35;2.55;;;12.60;99.90;;;;;;4905856;29;20040;-81
2023/09/03 04:08:38;;;;;;;4.40;2.40;;;12.60;99.90;;;;;;4905247;29;20118;-81
2023/09/03 04:11:09;;;;;;;3.00;2.70;;;12.60;99.90;;;;;;4894899;29;20052;-83
2023/09/03 04:13:39;;;;;;;4.72;2.63;;;12.60;99.90;;;;;;4900684;29;20064;-81
2023/09/03 04:16:15;;;;;;;2.85;2.33;;;12.60;99.90;;;;;;4906984;29;20036;-82
2023/09/03 04:18:44;;;;;;;2.80;2.60;;;12.60;99.90;;;;;;4900939;29;20040;-83
2023/09/03 04:21:10;;;;;;;4.85;2.42;;;12.70;99.90;;;;;;4910518;29;20041;-82
2023/09/03 04:23:37;;;;;;;2.80;2.60;;;12.70;99.90;;;;;;4911894;29;20043;-83
2023/09/03 04:26:05;;;;;;;2.70;2.50;;;12.70;99.90;;;;;;4907925;29;20505;-81
2023/09/03 04:28:34;;;;;;;4.32;2.75;;;12.60;99.90;;;;;;4906628;29;20037;-82
2023/09/03 04:31:05;;;;;;;2.75;2.53;;;12.60;99.90;;;;;;4900625;29;20471;-81
2023/09/03 04:33:34;;;;;;;3.67;2.38;;;12.70;99.90;;;;;;4897073;29;20036;-80
2023/09/03 04:36:02;;;;;;;3.17;2.85;;;12.70;99.90;;;;;;4921898;29;20044;-81
2023/09/03 04:38:30;;;;;;;4.20;2.33;;;12.70;99.90;;;;;;4909756;29;20037;-83
2023/09/03 04:40:56;;;;;;;4.57;2.50;;;12.70;99.90;;;;;;4895218;29;20068;-82
2023/09/03 04:43:24;;;;;;;3.17;2.75;;;12.70;99.90;;;;;;4903749;29;20454;-83
2023/09/03 04:45:52;;;;;;;4.80;2.75;;;12.70;99.90;;;;;;4901999;29;20040;-80
2023/09/03 04:48:21;;;;;;;3.05;2.75;;;12.80;99.90;;;;;;4909464;29;20037;-83
2023/09/03 04:50:47;;;;;;;2.88;2.53;;;12.70;99.90;;;;;;4911732;29;20043;-80
2023/09/03 04:53:13;;;;;;;3.15;2.90;;;12.80;99.90;;;;;;4901685;29;20130;-83
2023/09/03 04:55:40;;;;;;;3.72;2.55;;;12.80;99.90;;;;;;4914087;29;20541;-80
2023/09/03 04:58:07;;;;;;;3.35;2.75;;;12.80;99.90;;;;;;4920808;29;20558;-81
2023/09/03 05:00:33;;;;;;;3.65;2.50;;;12.80;99.90;;;;;;4900197;29;20046;-81
2023/09/03 05:03:01;;;;;;;4.03;2.38;;;12.80;99.90;;;;;;4913380;29;20029;-81
2023/09/03 05:05:27;;;;;;;5.25;2.60;;;12.90;99.90;;;;;;4898858;29;20076;-81
2023/09/03 05:07:53;;;;;;;2.17;1.98;;;12.90;99.90;;;;;;4913294;29;20135;-81
2023/09/03 05:10:21;;;;;;;2.28;2.08;;;12.90;99.90;;;;;;4898828;29;20036;-81
2023/09/03 05:12:47;;;;;;;3.75;2.20;;;13.00;99.90;;;;;;4903303;29;20545;-81
2023/09/03 05:15:13;;;;;;;2.30;2.10;;;12.90;99.90;;;;;;4902123;29;20036;-80
2023/09/03 05:17:40;;;;;;;1.48;1.38;;;13.00;99.90;;;;;;4911509;29;20042;-82
2023/09/03 05:20:11;;;;;;;3.53;1.90;;;13.00;99.90;;;;;;4905318;29;20033;-81
2023/09/03 05:22:40;;;;;;;2.28;2.08;;;13.00;99.90;;;;;;4908977;29;20033;-80
2023/09/03 05:25:06;;;;;;;4.70;2.40;;;13.00;99.90;;;;;;4906558;29;20037;-82
2023/09/03 05:27:32;;;;;;;1.77;1.52;;;13.00;99.90;;;;;;4901205;29;20066;-82
2023/09/03 05:29:58;;;;;;;2.55;2.10;;;13.10;99.90;;;;;;4897894;29;20085;-82
2023/09/03 05:32:25;;;;;;;2.03;1.92;;;13.10;99.90;;;;;;4893203;29;20028;-80
2023/09/03 05:34:51;;;;;;;5.32;2.50;;;13.10;99.90;;;;;;4914699;29;20034;-81
2023/09/03 05:37:17;;;;;;;3.03;1.88;;;13.10;99.90;;;;;;4922940;29;20084;-81
2023/09/03 05:39:43;;;;;;;2.45;2.25;;;13.20;99.90;;;;;;4896997;29;20036;-80
2023/09/03 05:42:09;;;;;;;3.20;2.08;;;13.20;99.90;;;;;;4905564;29;20069;-80
2023/09/03 05:44:35;;;;;;;5.78;2.35;;;13.30;99.90;;;;;;4915624;29;20051;-81
2023/09/03 05:47:01;;;;;;;6.15;2.20;;;13.40;99.90;;;;;;4916675;29;20044;-81
2023/09/03 05:49:28;;;;;;;3.63;2.22;;;13.50;99.90;;;;;;4906518;29;20033;-81
2023/09/03 05:52:12;;;;;;;2.30;2.05;;;13.50;99.90;;;;;;4890356;29;20047;-81
2023/09/03 05:54:38;;;;;;;2.22;2.00;;;13.60;99.90;;;;;;4903470;29;20036;-81
2023/09/03 05:57:05;;;;;;;2.75;2.10;;;13.70;99.90;;;;;;4916960;29;20040;-80
2023/09/03 05:59:31;;;;;;;4.00;1.73;;;13.80;99.90;;;;;;4898554;29;20032;-82
2023/09/03 06:01:57;;;;;;;4.07;2.03;;;13.90;99.90;;;;;;4900872;29;20045;-83
2023/09/03 06:04:23;;;;;;;2.67;2.03;;;14.00;99.90;;;;;;4901192;29;20036;-80
2023/09/03 06:06:50;;;;;;;2.63;2.17;;;14.00;99.90;;;;;;4903993;29;20156;-82
2023/09/03 06:09:18;;;;;;;2.58;1.67;;;14.10;99.90;;;;;;4896067;29;20060;-82
2023/09/03 06:11:46;;;;;;;6.20;1.90;;;14.20;99.90;;;;;;4894493;29;20044;-80
2023/09/03 06:14:13;;;;;;;3.08;1.90;;;14.20;99.90;;;;;;4897813;29;20048;-81
2023/09/03 06:16:38;;;;;;;1.73;1.63;;;14.30;99.90;;;;;;4900035;29;20047;-81
2023/09/03 06:19:04;;;;;;;2.55;2.22;;;14.30;99.90;;;;;;4898905;29;20045;-78
2023/09/03 06:21:30;;;;;;;3.05;2.55;;;14.40;99.90;;;;;;4892115;29;20494;-82
2023/09/03 06:23:56;;;;;;;2.55;2.35;;;14.40;99.90;;;;;;4898535;29;20033;-82
2023/09/03 06:26:22;;;;;;;2.42;2.20;;;14.50;99.90;;;;;;4899263;29;20119;-83
2023/09/03 06:28:48;;;;;;;3.70;2.20;;;14.60;99.90;;;;;;4903474;29;20123;-82
2023/09/03 06:31:14;;;;;;;3.00;1.67;;;14.60;99.90;;;;;;4895841;29;20039;-79
2023/09/03 06:33:40;;;;;;;2.60;1.90;;;14.80;99.90;;;;;;4892255;29;20056;-80
2023/09/03 06:36:05;;;;;;;2.53;1.77;;;15.00;99.90;;;;;;4902234;29;20037;-82
2023/09/03 06:38:31;;;;;;;2.97;1.77;;;15.10;99.90;;;;;;4898692;29;20080;-83
2023/09/03 06:40:57;;;;;;;3.58;2.67;;;15.30;99.90;;;;;;4893910;29;20037;-84
2023/09/03 06:43:23;;;;;;;3.60;3.10;;;15.60;99.90;;;;;;4897785;29;20391;-81
2023/09/03 06:45:49;;;;;;;3.30;3.05;;;15.70;99.90;;;;;;4901217;29;20033;-82
2023/09/03 06:48:15;;;;;;;4.93;2.60;;;15.90;99.90;;;;;;4903604;29;20029;-83
2023/09/03 06:50:41;;;;;;;3.08;2.88;;;15.90;99.90;;;;;;4895610;29;20036;-83
2023/09/03 06:53:07;;;;;;;4.57;3.03;;;16.10;99.90;;;;;;4897234;29;20041;-82
2023/09/03 06:55:33;;;;;;;3.28;2.97;;;16.40;99.90;;;;;;4895594;29;20040;-82
2023/09/03 06:57:59;;;;;;;5.18;3.15;;;16.70;99.90;;;;;;4907181;29;20486;-80
2023/09/03 07:00:25;;;;;;;4.38;2.70;;;17.00;99.90;;;;;;4894244;29;20074;-81
2023/09/03 07:02:51;;;;;;;3.33;2.97;;;17.10;99.90;;;;;;4887955;29;20093;-82
2023/09/03 07:05:16;;;;;;;3.38;2.78;;;17.20;99.90;;;;;;4897080;29;20489;-82
2023/09/03 07:07:42;;;;;;;3.13;2.83;;;17.40;99.90;;;;;;4898629;29;20382;-83
2023/09/03 07:10:08;;;;;;;3.72;2.90;;;17.50;99.90;;;;;;4899335;29;20053;-79
2023/09/03 07:12:39;;;;;;;2.50;2.30;;;17.60;99.90;;;;;;4891964;29;20096;-81
2023/09/03 07:15:06;;;;;;;2.30;2.10;;;17.70;99.90;;;;;;4912530;29;20029;-82
2023/09/03 07:17:32;;;;;;;3.00;2.80;;;17.80;99.90;;;;;;4899274;29;20051;-82
2023/09/03 07:19:57;;;;;;;4.13;2.70;;;17.90;99.90;;;;;;4902247;29;20037;-76
2023/09/03 07:22:24;;;;;;;3.03;2.72;;;18.10;99.90;;;;;;4885742;29;20455;-79
2023/09/03 07:24:53;;;;;;;3.22;2.92;;;18.20;99.90;;;;;;4893872;29;20037;-79
2023/09/03 07:27:19;;;;;;;3.00;2.70;;;18.40;99.90;;;;;;4902683;29;20039;-79
2023/09/03 07:29:45;;;;;;;3.10;2.60;;;18.60;99.90;;;;;;4901566;29;20032;-82
2023/09/03 07:32:11;;;;;;;3.30;3.00;;;18.70;99.90;;;;;;4894569;29;20035;-80
2023/09/03 07:34:37;;;;;;;2.50;2.30;;;18.70;99.90;;;;;;4889788;29;20455;-81
2023/09/03 07:37:02;;;;;;;2.78;2.35;;;18.60;99.90;;;;;;4897845;29;20092;-81
2023/09/03 07:39:28;;;;;;;2.30;2.10;;;18.50;99.90;;;;;;4892485;29;20044;-81
2023/09/03 07:41:56;;;;;;;3.00;2.80;;;18.50;99.90;;;;;;4887023;29;20096;-79
2023/09/03 07:44:25;;;;;;;2.65;2.45;;;18.40;99.90;;;;;;4889783;29;20156;-80
2023/09/03 07:46:50;;;;;;;4.40;2.80;;;18.30;99.90;;;;;;4890296;29;20047;-77
2023/09/03 07:49:16;;;;;;;4.38;2.45;;;18.20;99.90;;;;;;4891471;29;20041;-79
2023/09/03 07:51:42;;;;;;;2.70;2.50;;;18.20;99.90;;;;;;4895441;29;20510;-79
2023/09/03 07:54:08;;;;;;;2.90;2.45;;;18.30;99.90;;;;;;4905944;29;20037;-81
2023/09/03 07:56:34;;;;;;;2.53;2.33;;;18.40;99.90;;;;;;4902062;29;20041;-78
2023/09/03 07:59:00;;;;;;;5.03;3.42;;;18.40;99.90;;;;;;4893773;29;20067;-80
2023/09/03 08:01:26;;;;;;;3.00;2.70;;;18.60;99.90;;;;;;4894611;29;20033;-81
2023/09/03 08:04:10;;;;;;;3.70;2.30;;;18.60;99.90;;;;;;4890743;29;20495;-80
2023/09/03 08:06:36;;;;;;;2.83;2.30;;;18.80;99.90;;;;;;4896512;29;20052;-80
2023/09/03 08:09:03;;;;;;;6.45;2.28;;;18.90;99.90;;;;;;4897082;29;20143;-81
2023/09/03 08:11:28;;;;;;;2.17;2.03;;;19.00;99.90;;;;;;4903055;29;20064;-78
2023/09/03 08:13:59;;;;;;;1.95;1.83;;;19.10;99.90;;;;;;4890321;29;20517;-80
2023/09/03 08:16:25;;;;;;;1.90;1.80;;;19.20;99.90;;;;;;4890808;29;20108;-81
2023/09/03 08:18:51;;;;;;;2.00;1.70;;;19.30;99.90;;;;;;4897480;29;20040;-78
2023/09/03 08:21:17;;;;;;;2.15;1.95;;;19.40;99.90;;;;;;4892609;29;20062;-78
2023/09/03 08:23:43;;;;;;;4.22;1.77;;;19.50;99.90;;;;;;4887144;29;20127;-78
2023/09/03 08:26:09;;;;;;;1.67;1.58;;;19.60;99.90;;;;;;4893180;29;20033;-78
2023/09/03 08:28:35;;;;;;;1.70;1.60;;;19.60;99.90;;;;;;4881994;29;20044;-80
2023/09/03 08:31:01;;;;;;;1.42;1.33;;;19.60;99.90;;;;;;4907671;29;20043;-79
2023/09/03 08:33:27;;;;;;;1.88;1.50;;;19.70;99.90;;;;;;4897916;29;20056;-80
2023/09/03 08:35:53;;;;;;;1.60;1.50;;;19.80;99.90;;;;;;4898208;29;20048;-79
2023/09/03 08:38:19;;;;;;;1.75;1.65;;;19.80;99.90;;;;;;4893541;29;20064;-80
2023/09/03 08:40:44;;;;;;;1.90;1.63;;;19.90;99.90;;;;;;4897479;29;20075;-79
2023/09/03 08:43:11;;;;;;;1.90;1.80;;;20.00;99.90;;;;;;4895383;29;20033;-80
2023/09/03 08:46:03;;;;;;;1.88;1.77;;;20.00;99.90;;;;;;4891413;29;20039;-81
2023/09/03 08:48:28;;;;;;;1.95;1.85;;;20.10;99.90;;;;;;4905245;29;20077;-78
2023/09/03 08:50:55;;;;;;;2.95;1.45;;;20.20;99.90;;;;;;4891233;29;20080;-79
2023/09/03 08:53:34;;;;;;;2.30;1.90;;;20.20;99.90;;;;;;4902347;29;20471;-80
2023/09/03 08:56:00;;;;;;;3.63;1.90;;;20.20;99.90;;;;;;4904936;29;20036;-80
2023/09/03 08:58:26;;;;;;;4.60;2.35;;;20.20;99.90;;;;;;4893789;29;20052;-77
2023/09/03 09:00:54;;;;;;;3.00;2.03;;;20.20;99.90;;;;;;4891059;29;20478;-81
2023/09/03 09:03:24;;;;;;;3.83;2.47;;;20.20;99.90;;;;;;4898760;29;20052;-77
2023/09/03 09:05:51;;;;;;;3.80;1.92;;;20.30;99.90;;;;;;4892360;29;20059;-82
2023/09/03 09:08:17;;;;;;;2.30;2.10;;;20.30;99.90;;;;;;4887844;29;20483;-79
2023/09/03 09:10:47;;;;;;;2.88;1.83;;;20.40;99.90;;;;;;4887003;29;20040;-81
2023/09/03 09:13:17;;;;;;;2.17;1.98;;;20.40;99.90;;;;;;4887677;29;20529;-81
2023/09/03 09:15:44;;;;;;;2.03;1.83;;;20.40;99.90;;;;;;4908691;29;20127;-80
2023/09/03 09:18:10;;;;;;;3.00;1.77;;;20.50;99.90;;;;;;4891189;29;20379;-79
2023/09/03 09:20:40;;;;;;;2.22;1.80;;;20.40;99.90;;;;;;4888077;29;20029;-79
2023/09/03 09:23:07;;;;;;;3.28;2.80;;;20.50;99.90;;;;;;4893719;29;20048;-76
2023/09/03 09:25:34;;;;;;;2.80;1.98;;;20.50;99.90;;;;;;4896807;29;20054;-79
2023/09/03 09:28:09;;;;;;;2.40;2.20;;;20.50;99.90;;;;;;4896361;29;20033;-81
2023/09/03 09:30:35;;;;;;;2.63;2.13;;;20.60;99.90;;;;;;4892349;29;20024;-81
2023/09/03 09:33:03;;;;;;;2.10;1.90;;;20.60;99.90;;;;;;4890361;29;20490;-78
2023/09/03 09:35:30;;;;;;;2.60;2.40;;;20.70;99.90;;;;;;4885765;29;20049;-81
2023/09/03 09:38:15;;;;;;;3.17;2.80;;;20.70;99.90;;;;;;4895418;29;20060;-81
2023/09/03 09:40:41;;;;;;;3.20;2.30;;;20.80;99.90;;;;;;4893459;29;20036;-80
2023/09/03 09:43:08;;;;;;;2.85;2.65;;;20.90;99.90;;;;;;4889230;29;20494;-79
2023/09/03 09:45:46;;;;;;;2.15;2.05;;;21.00;99.90;;;;;;4889467;29;20041;-79
2023/09/03 09:48:12;;;;;;;2.75;2.55;;;21.10;99.90;;;;;;4906292;29;20092;-80
2023/09/03 09:50:40;;;;;;;3.05;2.58;;;21.10;99.90;;;;;;4891475;29;20040;-81
2023/09/03 09:53:25;;;;;;;3.22;2.92;;;21.20;99.90;;;;;;4897857;29;20035;-81
2023/09/03 09:56:03;;;;;;;2.30;2.17;;;21.10;99.90;;;;;;4899235;29;20041;-81
2023/09/03 09:58:39;;;;;;;2.33;2.20;;;21.00;99.90;;;;;;4900319;29;20056;-82
2023/09/03 10:01:06;;;;;;;2.58;2.10;;;21.10;99.90;;;;;;4895205;29;20092;-81
2023/09/03 10:03:59;;;;;;;2.95;2.67;;;21.20;99.90;;;;;;4891471;29;20455;-82
2023/09/03 10:06:25;;;;;;;2.50;2.30;;;21.30;99.90;;;;;;4890396;29;20040;-80
2023/09/03 10:08:52;;;;;;;2.50;2.30;;;21.30;99.90;;;;;;4890693;29;20033;-82
2023/09/03 10:11:18;;;;;;;3.50;2.97;;;21.20;99.90;;;;;;4895710;29;20111;-84
2023/09/03 10:13:44;;;;;;;2.85;2.65;;;21.10;99.90;;;;;;4897998;29;20041;-80
2023/09/03 10:16:10;;;;;;;4.25;3.85;;;21.10;99.90;;;;;;4893263;29;20036;-80
2023/09/03 10:18:48;;;;;;;3.65;3.35;;;21.00;99.90;;;;;;4889196;29;20040;-81
2023/09/03 10:21:19;;;;;;;3.63;3.33;;;20.90;99.90;;;;;;4889245;29;20048;-79
2023/09/03 10:23:49;;;;;;;3.65;3.35;;;20.90;99.90;;;;;;4883137;29;20033;-81
2023/09/03 10:26:30;;;;;;;3.25;2.95;;;20.90;99.90;;;;;;4897615;29;20155;-81
2023/09/03 10:29:03;;;;;;;3.10;2.90;;;21.00;99.90;;;;;;4889974;29;20486;-78
2023/09/03 10:31:30;;;;;;;3.15;2.85;;;21.10;99.90;;;;;;4892062;29;20120;-81
2023/09/03 10:33:56;;;;;;;3.17;2.88;;;21.20;99.90;;;;;;4893849;29;20041;-82
2023/09/03 10:36:22;;;;;;;2.78;2.53;;;21.20;99.90;;;;;;4892717;29;20096;-78
2023/09/03 10:38:48;;;;;;;2.83;2.63;;;21.20;99.90;;;;;;4891469;29;20041;-81
2023/09/03 10:41:25;;;;;;;2.47;2.28;;;21.20;99.90;;;;;;4888272;29;20046;-81
2023/09/03 10:43:54;;;;;;;3.30;3.00;;;21.20;99.90;;;;;;4896031;29;20032;-79
2023/09/03 10:46:27;;;;;;;3.05;2.80;;;21.20;99.90;;;;;;4902511;29;20020;-81
2023/09/03 10:48:57;;;;;;;2.97;2.78;;;21.30;99.90;;;;;;4893166;29;20044;-81
2023/09/03 10:51:49;;;;;;;3.15;2.85;;;21.30;99.90;;;;;;4883140;29;20040;-79
2023/09/03 10:54:20;;;;;;;3.25;2.80;;;21.40;99.90;;;;;;4891232;29;20599;-79
2023/09/03 10:57:13;;;;;;;2.67;2.47;;;21.60;99.90;;;;;;4897856;29;20119;-82
2023/09/03 10:59:57;;;;;;;3.97;3.67;;;21.70;99.90;;;;;;4892159;29;20029;-82
2023/09/03 11:02:28;;;;;;;3.33;3.03;;;21.70;99.90;;;;;;4889680;29;20064;-79
2023/09/03 11:08:59;;;;;;;2.92;2.70;;;21.70;99.90;;;;;;4929377;23;20044;-82
2023/09/03 11:11:30;;;;;;;3.15;2.60;;;21.70;99.90;;;;;;4892455;29;20033;-80
2023/09/03 11:13:57;;;;;;;2.80;2.60;;;21.70;99.90;;;;;;4886552;29;20112;-82
2023/09/03 11:16:30;;;;;;;2.83;2.63;;;21.80;99.90;;;;;;4897553;29;20025;-80
2023/09/03 11:18:56;;;;;;;3.10;2.90;;;21.80;99.90;;;;;;4890673;29;20083;-79
2023/09/03 11:21:27;;;;;;;3.40;3.20;;;21.90;99.90;;;;;;4899135;29;20032;-78
2023/09/03 11:24:00;;;;;;;3.00;2.70;;;22.00;99.90;;;;;;4894498;29;20032;-82
2023/09/03 11:26:26;;;;;;;4.40;2.85;;;22.00;99.90;;;;;;4885565;29;20036;-82
2023/09/03 11:28:53;;;;;;;2.88;2.67;;;22.10;99.90;;;;;;4892179;29;20147;-79
2023/09/03 11:31:19;;;;;;;2.67;2.42;;;22.10;99.90;;;;;;4900185;29;20041;-80
2023/09/03 11:33:45;;;;;;;3.83;3.08;;;22.20;99.90;;;;;;4899117;29;20115;-81
2023/09/03 11:36:11;;;;;;;2.92;2.72;;;22.20;99.90;;;;;;4901322;29;20051;-81
2023/09/03 11:38:37;;;;;;;2.85;2.65;;;22.20;99.90;;;;;;4886450;29;20100;-80
2023/09/03 11:41:03;;;;;;;3.10;2.90;;;22.30;99.90;;;;;;4898592;29;20053;-79
2023/09/03 11:43:30;;;;;;;3.92;2.72;;;22.30;99.90;;;;;;4897406;29;20097;-79
2023/09/03 11:46:01;;;;;;;3.63;3.30;;;22.30;99.90;;;;;;4892403;29;20032;-78
2023/09/03 11:48:28;;;;;;;3.05;2.85;;;22.40;99.90;;;;;;4893318;29;20037;-80
2023/09/03 11:50:54;;;;;;;3.88;3.08;;;22.40;99.90;;;;;;4893552;29;20132;-77
2023/09/03 11:53:24;;;;;;;3.50;2.95;;;22.40;99.90;;;;;;4889008;29;20032;-80
2023/09/03 11:55:55;;;;;;;2.70;2.50;;;22.30;99.90;;;;;;4893390;29;20040;-79
2023/09/03 11:58:25;;;;;;;3.28;2.97;;;22.30;99.90;;;;;;4898777;29;20446;-79
2023/09/03 12:00:52;;;;;;;3.00;2.80;;;22.20;99.90;;;;;;4896975;29;20052;-80
2023/09/03 12:03:18;;;;;;;3.25;3.05;;;22.20;99.90;;;;;;4900210;29;20029;-82
2023/09/03 12:05:44;;;;;;;3.28;2.90;;;22.20;99.90;;;;;;4903724;29;20043;-79
2023/09/03 12:08:10;;;;;;;3.05;2.53;;;22.30;99.90;;;;;;4904506;29;20037;-82
2023/09/03 12:10:36;;;;;;;3.17;2.92;;;22.30;99.90;;;;;;4885988;29;20083;-80
2023/09/03 12:13:03;;;;;;;3.20;2.90;;;22.40;99.90;;;;;;4897421;29;20033;-79
2023/09/03 12:15:30;;;;;;;3.03;2.22;;;22.40;99.90;;;;;;4905490;29;20033;-81
2023/09/03 12:18:10;;;;;;;3.53;2.50;;;22.40;99.90;;;;;;4895734;29;20108;-80
2023/09/03 12:20:39;;;;;;;3.03;2.50;;;22.50;99.90;;;;;;4900206;29;20029;-80
2023/09/03 12:23:24;;;;;;;3.05;2.17;;;22.60;99.90;;;;;;4895623;29;20032;-80
2023/09/03 12:25:49;;;;;;;2.40;2.20;;;22.70;99.90;;;;;;4900402;29;20032;-81
2023/09/03 12:28:15;;;;;;;3.00;2.80;;;22.80;99.90;;;;;;4899241;29;20063;-81
2023/09/03 12:31:02;;;;;;;3.00;2.75;;;22.80;99.90;;;;;;4889286;29;20049;-80
2023/09/03 12:33:44;;;;;;;2.97;2.67;;;22.90;99.90;;;;;;4893891;29;20041;-77
2023/09/03 12:36:15;;;;;;;2.53;2.33;;;22.90;99.90;;;;;;4895142;29;20032;-82
2023/09/03 12:38:54;;;;;;;5.57;2.88;;;22.90;99.90;;;;;;4900120;29;20422;-81
2023/09/03 12:41:22;;;;;;;3.03;2.72;;;22.90;99.90;;;;;;4888716;29;20530;-81
2023/09/03 12:43:48;;;;;;;2.88;2.67;;;23.10;99.90;;;;;;4891275;29;20028;-81
2023/09/03 12:46:14;;;;;;;2.85;2.65;;;23.00;99.90;;;;;;4895309;29;20521;-81
2023/09/03 12:48:42;;;;;;;3.58;2.90;;;23.00;99.90;;;;;;4890262;29;20397;-80
2023/09/03 12:51:10;;;;;;;5.40;2.67;;;23.00;99.90;;;;;;4917065;29;20044;-81
2023/09/03 12:53:37;;;;;;;3.55;3.08;;;23.00;99.90;;;;;;4895337;29;20545;-81
2023/09/03 12:56:03;;;;;;;2.97;2.78;;;23.00;99.90;;;;;;4887926;29;20048;-80
2023/09/03 12:58:29;;;;;;;2.92;2.70;;;22.90;99.90;;;;;;4885677;29;20050;-80
2023/09/03 13:00:55;;;;;;;2.80;2.60;;;22.90;99.90;;;;;;4893099;29;20088;-80